Guthrie, North Carolina
Current Conditions -  °F | °C
As of 6:54 AM on Monday 26 Jan 2015 (Local Time) from KGSO Reporting Station
Light Rain Light Rain  
Wind Chill:   Ceiling: 5500
Heat Index:   Visibility: 10mi
Dew Point:   Wind: 0mph
Humidity: 83%   Direction: NA
Pressure: 29.64"   Gusts: NA
Location:  36.1188°N, 80.075°W
Report Text: KGSO 261154Z 00000KT 10SM -RA SCT044 BKN055 OVC075 04/02 A2964 RMK AO2 RAB48 SLP038 P0000 60000 T00440017 10061 20033 55002
Loading
Personal Weather Stations






























Interactive Weather Map New forecast layout! Learn more

10-Day Weather Forecast

Advertisements
Track Severe Weather on mobile